Terminal Aerodrome Forecast
Issued by NWS Rapid City, SD

Home | Current Version | Previous Version | Text Only | Print | Product List | Glossary On
Versions: 1 2 3 4 5 6 7 8 9 10 11 12 13 14 15 16 17 18
381
FTUS43 KUNR 272047 AAA
TAFRAP
TAF AMD
KRAP 272047Z 2721/2818 VRB06KT P6SM BKN080
     FM280800 36006KT 5SM -SN OVC015=

USA.gov is the U.S. government's official web portal to all federal, state and local government web resources and services.